createdAt,value
2023-04-25T00:00:21.748Z,7.90
2023-04-25T00:02:48.644Z,8.00
2023-04-25T00:05:18.406Z,8.00
2023-04-25T00:07:45.233Z,8.10
2023-04-25T00:10:12.746Z,8.10
2023-04-25T00:12:40.028Z,8.10
2023-04-25T00:15:07.428Z,8.20
2023-04-25T00:17:35.792Z,8.20
2023-04-25T00:20:05.953Z,8.20
2023-04-25T00:22:34.596Z,8.20
2023-04-25T00:25:01.441Z,8.20
2023-04-25T00:27:28.205Z,8.30
2023-04-25T00:29:54.935Z,8.30
2023-04-25T00:32:21.681Z,8.40
2023-04-25T00:34:48.374Z,8.40
2023-04-25T00:37:15.173Z,8.40
2023-04-25T00:39:41.905Z,8.40
2023-04-25T00:42:09.533Z,8.40
2023-04-25T00:44:37.538Z,8.40
2023-04-25T00:47:04.696Z,8.30
2023-04-25T00:49:31.588Z,8.30
2023-04-25T00:51:58.550Z,8.20
2023-04-25T00:54:26.286Z,8.20
2023-04-25T00:56:54.071Z,8.20
2023-04-25T00:59:21.945Z,8.10
2023-04-25T01:01:48.685Z,8.10
2023-04-25T01:04:15.816Z,8.10
2023-04-25T01:06:42.843Z,8.10
2023-04-25T01:09:10.504Z,8.00
2023-04-25T01:11:37.413Z,7.90
2023-04-25T01:14:04.261Z,7.90
2023-04-25T01:16:31.463Z,7.90
2023-04-25T01:18:58.593Z,7.90
2023-04-25T01:21:28.135Z,7.90
2023-04-25T01:23:55.603Z,7.90
2023-04-25T01:26:23.462Z,7.90
2023-04-25T01:28:50.833Z,7.90
2023-04-25T01:31:19.360Z,7.90
2023-04-25T01:33:46.713Z,7.90
2023-04-25T01:36:14.049Z,7.90
2023-04-25T01:38:41.305Z,7.90
2023-04-25T01:41:08.327Z,7.90
2023-04-25T01:43:35.184Z,7.80
2023-04-25T01:46:02.224Z,7.80
2023-04-25T01:48:29.006Z,7.80
2023-04-25T01:50:55.752Z,7.70
2023-04-25T01:53:23.918Z,7.70
2023-04-25T01:55:50.696Z,7.60
2023-04-25T01:58:17.416Z,7.60
2023-04-25T02:00:44.266Z,7.50
2023-04-25T02:03:11.149Z,7.50
2023-04-25T02:05:41.472Z,7.40
2023-04-25T02:08:08.983Z,7.30
2023-04-25T02:10:36.513Z,7.30
2023-04-25T02:13:04.704Z,7.20
2023-04-25T02:15:31.522Z,7.20
2023-04-25T02:17:58.925Z,7.20
2023-04-25T02:20:26.051Z,7.10
2023-04-25T02:22:53.286Z,7.10
2023-04-25T02:25:21.063Z,7.10
2023-04-25T02:27:48.429Z,7.10
2023-04-25T02:30:16.172Z,7.10
2023-04-25T02:32:43.013Z,7.10
2023-04-25T02:35:10.223Z,7.10
2023-04-25T02:37:38.843Z,7.20
2023-04-25T02:40:06.586Z,7.30
2023-04-25T02:42:33.767Z,7.30
2023-04-25T02:45:00.472Z,7.30
2023-04-25T02:47:27.406Z,7.40
2023-04-25T02:49:54.137Z,7.40
2023-04-25T02:52:22.221Z,7.40
2023-04-25T02:54:49.068Z,7.40
2023-04-25T02:57:15.878Z,7.50
2023-04-25T02:59:42.648Z,7.50
2023-04-25T03:02:09.400Z,7.50
2023-04-25T03:04:36.306Z,7.60
2023-04-25T03:07:03.439Z,7.60
2023-04-25T03:09:30.138Z,7.70
2023-04-25T03:11:56.917Z,7.70
2023-04-25T03:14:23.620Z,7.70
2023-04-25T03:16:50.389Z,7.80
2023-04-25T03:19:17.988Z,7.80
2023-04-25T03:21:45.515Z,7.80
2023-04-25T03:24:12.874Z,7.80
2023-04-25T03:26:39.595Z,7.80
2023-04-25T03:29:06.381Z,7.80
2023-04-25T03:31:33.219Z,7.80
2023-04-25T03:34:00.005Z,7.80
2023-04-25T03:36:26.724Z,7.80
2023-04-25T03:38:53.409Z,7.70
2023-04-25T03:41:20.136Z,7.70
2023-04-25T03:43:46.874Z,7.70
2023-04-25T03:46:13.880Z,7.60
2023-04-25T03:48:40.609Z,7.60
2023-04-25T03:51:07.457Z,7.50
2023-04-25T03:53:34.162Z,7.50
2023-04-25T03:56:00.907Z,7.40
2023-04-25T03:58:27.659Z,7.40
2023-04-25T04:00:54.365Z,7.30
2023-04-25T04:03:21.635Z,7.30
2023-04-25T04:05:48.950Z,7.20
2023-04-25T04:08:15.827Z,7.20
2023-04-25T04:10:42.520Z,7.20
2023-04-25T04:13:09.228Z,7.20
2023-04-25T04:15:36.056Z,7.20
2023-04-25T04:18:03.796Z,7.20
2023-04-25T04:20:33.938Z,7.20
2023-04-25T04:23:00.694Z,7.20
2023-04-25T04:25:27.458Z,7.10
2023-04-25T04:27:57.058Z,7.10
2023-04-25T04:30:30.512Z,7.10
2023-04-25T04:32:58.293Z,7.10
2023-04-25T04:35:25.739Z,7.10
2023-04-25T04:37:52.522Z,7.10
2023-04-25T04:40:19.809Z,7.10
2023-04-25T04:42:46.555Z,7.10
2023-04-25T04:45:13.865Z,7.20
2023-04-25T04:47:41.574Z,7.20
2023-04-25T04:50:10.288Z,7.20
2023-04-25T04:52:38.208Z,7.20
2023-04-25T04:55:06.521Z,7.20
2023-04-25T04:57:34.016Z,7.20
2023-04-25T05:00:00.932Z,7.30
2023-04-25T05:02:28.364Z,7.30
2023-04-25T05:04:55.377Z,7.30
2023-04-25T05:07:22.217Z,7.40
2023-04-25T05:09:48.954Z,7.50
2023-04-25T05:12:15.815Z,7.50
2023-04-25T05:14:42.527Z,7.50
2023-04-25T05:17:09.543Z,7.60
2023-04-25T05:19:36.474Z,7.50
2023-04-25T05:22:03.688Z,7.50
2023-04-25T05:24:31.510Z,7.60
2023-04-25T05:26:58.509Z,7.50
2023-04-25T05:29:25.308Z,7.60
2023-04-25T05:31:52.072Z,7.60
2023-04-25T05:34:18.845Z,7.60
2023-04-25T05:36:45.644Z,7.60
2023-04-25T05:39:12.424Z,7.70
2023-04-25T05:41:39.138Z,7.70
2023-04-25T05:44:06.469Z,7.80
2023-04-25T05:46:33.317Z,7.90
2023-04-25T05:49:00.174Z,8.10
2023-04-25T05:51:27.022Z,8.20
2023-04-25T05:53:54.109Z,8.50
2023-04-25T05:56:20.909Z,8.80
2023-04-25T05:58:48.128Z,9.00
2023-04-25T06:01:15.264Z,9.10
2023-04-25T06:03:44.093Z,9.00
2023-04-25T06:06:10.912Z,8.80
2023-04-25T06:08:38.712Z,8.70
2023-04-25T06:11:05.763Z,8.50
2023-04-25T06:13:32.633Z,8.30
2023-04-25T06:15:59.388Z,8.10
2023-04-25T06:18:26.129Z,7.90
2023-04-25T06:20:52.847Z,7.70
2023-04-25T06:23:19.596Z,7.60
2023-04-25T06:25:46.352Z,7.50
2023-04-25T06:28:13.154Z,7.40
2023-04-25T06:30:39.898Z,7.30
2023-04-25T06:33:06.712Z,7.30
2023-04-25T06:35:33.503Z,7.30
2023-04-25T06:38:00.887Z,7.40
2023-04-25T06:40:27.706Z,7.50
2023-04-25T06:42:54.397Z,7.80
2023-04-25T06:45:21.134Z,8.20
2023-04-25T06:47:47.867Z,8.40
2023-04-25T06:50:14.655Z,8.70
2023-04-25T06:52:41.445Z,9.00
2023-04-25T06:55:08.511Z,9.40
2023-04-25T06:57:35.207Z,10.10
2023-04-25T07:00:02.577Z,11.20
2023-04-25T07:02:29.700Z,12.20
2023-04-25T07:05:00.636Z,12.50
2023-04-25T07:07:27.972Z,12.30
2023-04-25T07:09:54.727Z,11.80
2023-04-25T07:12:21.402Z,11.40
2023-04-25T07:14:48.160Z,11.00
2023-04-25T07:17:14.920Z,10.60
2023-04-25T07:19:41.653Z,10.30
2023-04-25T07:22:08.349Z,10.10
2023-04-25T07:24:35.082Z,10.00
2023-04-25T07:27:02.294Z,10.00
2023-04-25T07:29:29.109Z,10.00
2023-04-25T07:31:55.961Z,10.10
2023-04-25T07:34:22.737Z,10.20
2023-04-25T07:36:49.502Z,10.40
2023-04-25T07:39:16.226Z,10.70
2023-04-25T07:41:42.972Z,11.10
2023-04-25T07:44:09.683Z,11.80
2023-04-25T07:46:36.455Z,13.10
2023-04-25T07:49:03.475Z,14.90
2023-04-25T07:51:30.243Z,17.30
2023-04-25T07:53:57.110Z,19.70
2023-04-25T07:56:23.921Z,21.90
2023-04-25T07:58:50.898Z,23.90
2023-04-25T08:01:17.786Z,25.50
2023-04-25T08:03:44.784Z,26.50
2023-04-25T08:06:12.286Z,27.40
2023-04-25T08:08:39.286Z,28.50
2023-04-25T08:11:05.998Z,29.30
2023-04-25T08:13:32.699Z,29.30
2023-04-25T08:15:59.522Z,27.70
2023-04-25T08:18:26.513Z,26.20
2023-04-25T08:20:53.273Z,26.20
2023-04-25T08:23:20.026Z,26.20
2023-04-25T08:25:46.857Z,25.10
2023-04-25T08:28:13.662Z,23.40
2023-04-25T08:30:40.420Z,21.70
2023-04-25T08:33:07.300Z,20.40
2023-04-25T08:35:34.602Z,19.10
2023-04-25T08:38:02.140Z,17.90
2023-04-25T08:40:32.159Z,16.90
2023-04-25T08:42:59.822Z,16.30
2023-04-25T08:45:28.887Z,16.10
2023-04-25T08:47:58.149Z,17.30
2023-04-25T08:50:27.232Z,19.10
2023-04-25T08:52:55.369Z,20.90
2023-04-25T08:55:23.645Z,22.30
2023-04-25T08:57:51.513Z,23.10
2023-04-25T09:00:19.354Z,24.20
2023-04-25T09:02:47.783Z,24.90
2023-04-25T09:05:15.435Z,25.20
2023-04-25T09:07:42.279Z,25.90
2023-04-25T09:10:09.633Z,26.60
2023-04-25T09:12:36.733Z,27.00
2023-04-25T09:15:20.381Z,26.80
2023-04-25T09:17:59.529Z,25.40
2023-04-25T09:20:27.235Z,24.60
2023-04-25T09:23:08.013Z,24.60
2023-04-25T09:25:40.163Z,25.00
2023-04-25T09:28:07.906Z,25.70
2023-04-25T09:30:36.550Z,26.50
2023-04-25T09:33:12.905Z,27.10
2023-04-25T09:35:45.024Z,27.20
2023-04-25T09:38:16.004Z,26.50
2023-04-25T09:40:45.647Z,24.90
2023-04-25T09:43:22.839Z,23.10
2023-04-25T09:45:50.360Z,21.40
2023-04-25T09:48:21.713Z,20.10
2023-04-25T09:51:07.708Z,19.30
2023-04-25T09:53:40.082Z,18.60
2023-04-25T09:56:08.701Z,18.00
2023-04-25T09:58:36.963Z,17.50
2023-04-25T10:01:06.792Z,17.20
2023-04-25T10:03:36.732Z,16.80
2023-04-25T10:06:07.968Z,16.50
2023-04-25T10:08:37.538Z,16.10
2023-04-25T10:11:06.956Z,15.70
2023-04-25T10:13:34.300Z,15.40
2023-04-25T10:16:03.106Z,15.30
2023-04-25T10:18:31.060Z,15.40
2023-04-25T10:21:01.016Z,15.90
2023-04-25T10:23:30.083Z,16.90
2023-04-25T10:25:57.873Z,18.20
2023-04-25T10:28:24.885Z,19.10
2023-04-25T10:31:09.232Z,19.70
2023-04-25T10:33:44.877Z,19.80
2023-04-25T10:36:15.963Z,19.40
2023-04-25T10:38:46.955Z,18.60
2023-04-25T10:41:14.901Z,17.50
2023-04-25T10:43:46.167Z,16.60
2023-04-25T10:46:17.029Z,15.60
2023-04-25T10:48:53.150Z,14.90
2023-04-25T10:51:39.955Z,14.30
2023-04-25T10:54:10.597Z,13.80
2023-04-25T10:56:37.279Z,13.60
2023-04-25T10:59:11.655Z,13.30
2023-04-25T11:01:46.488Z,13.10
2023-04-25T11:04:31.463Z,12.90
2023-04-25T11:07:23.789Z,12.80
2023-04-25T11:09:51.069Z,12.90
2023-04-25T11:12:18.574Z,12.90
2023-04-25T11:14:45.424Z,13.10
2023-04-25T11:17:12.427Z,13.40
2023-04-25T11:19:39.506Z,13.70
2023-04-25T11:22:07.022Z,13.90
2023-04-25T11:24:35.737Z,13.90
2023-04-25T11:27:08.992Z,13.80
2023-04-25T11:29:36.323Z,13.60
2023-04-25T11:32:03.584Z,13.40
2023-04-25T11:34:32.125Z,13.00
2023-04-25T11:36:59.295Z,12.70
2023-04-25T11:39:26.959Z,12.60
2023-04-25T11:41:54.593Z,12.60
2023-04-25T11:44:22.345Z,12.60
2023-04-25T11:46:49.941Z,12.60
2023-04-25T11:49:19.120Z,12.50
2023-04-25T11:51:48.051Z,12.30
2023-04-25T11:54:15.847Z,12.10
2023-04-25T11:56:43.702Z,11.90
2023-04-25T11:59:11.576Z,11.70
2023-04-25T12:01:41.633Z,11.40
2023-04-25T12:04:19.917Z,11.20
2023-04-25T12:06:51.667Z,11.10
2023-04-25T12:09:32.758Z,10.90
2023-04-25T12:12:03.839Z,10.90
2023-04-25T12:14:36.562Z,10.90
2023-04-25T12:17:05.201Z,10.80
2023-04-25T12:19:37.213Z,10.60
2023-04-25T12:22:04.915Z,10.70
2023-04-25T12:24:37.069Z,10.60
2023-04-25T12:27:11.687Z,10.60
2023-04-25T12:29:49.150Z,10.50
2023-04-25T12:32:16.870Z,10.50
2023-04-25T12:34:43.867Z,10.60
2023-04-25T12:37:11.361Z,10.60
2023-04-25T12:39:38.344Z,10.60
2023-04-25T12:42:07.771Z,10.70
2023-04-25T12:44:36.631Z,10.80
2023-04-25T12:47:04.264Z,10.90
2023-04-25T12:49:31.465Z,10.90
2023-04-25T12:51:58.634Z,10.90
2023-04-25T12:54:26.524Z,11.00
2023-04-25T12:56:53.635Z,11.10
2023-04-25T12:59:21.482Z,11.10
2023-04-25T13:01:48.411Z,11.10
2023-04-25T13:04:15.492Z,11.10
2023-04-25T13:06:42.602Z,11.10
2023-04-25T13:09:09.530Z,11.10
2023-04-25T13:11:36.545Z,11.10
2023-04-25T13:14:03.861Z,11.00
2023-04-25T13:16:30.817Z,10.90
2023-04-25T13:18:57.552Z,11.00
2023-04-25T13:21:24.407Z,11.00
2023-04-25T13:23:52.105Z,11.00
2023-04-25T13:26:19.088Z,11.00
2023-04-25T13:28:45.883Z,10.90
2023-04-25T13:31:12.617Z,10.90
2023-04-25T13:33:39.364Z,10.80
2023-04-25T13:36:06.502Z,10.70
2023-04-25T13:38:33.585Z,10.80
2023-04-25T13:41:01.846Z,11.00
2023-04-25T13:43:28.658Z,11.10
2023-04-25T13:45:55.536Z,11.20
2023-04-25T13:48:23.579Z,11.00
2023-04-25T13:50:50.330Z,10.90
2023-04-25T13:53:17.067Z,10.60
2023-04-25T13:55:43.853Z,10.40
2023-04-25T13:58:11.298Z,10.20
2023-04-25T14:00:39.968Z,10.20
2023-04-25T14:03:09.024Z,10.10
2023-04-25T14:05:40.981Z,10.20
2023-04-25T14:08:09.377Z,10.20
2023-04-25T14:10:36.589Z,10.30
2023-04-25T14:13:04.165Z,10.40
2023-04-25T14:15:34.898Z,10.30
2023-04-25T14:18:02.384Z,10.20
2023-04-25T14:20:29.835Z,10.20
2023-04-25T14:22:58.142Z,10.10
2023-04-25T14:25:26.473Z,10.10
2023-04-25T14:27:53.456Z,9.90
2023-04-25T14:30:21.783Z,10.00
2023-04-25T14:32:50.453Z,10.10
2023-04-25T14:35:17.623Z,10.30
2023-04-25T14:37:44.397Z,10.50
2023-04-25T14:40:11.859Z,10.70
2023-04-25T14:42:38.748Z,10.90
2023-04-25T14:45:09.425Z,11.00
2023-04-25T14:47:39.554Z,11.00
2023-04-25T14:50:07.952Z,11.00
2023-04-25T14:52:35.067Z,11.10
2023-04-25T14:55:05.785Z,11.10
2023-04-25T14:57:33.503Z,11.00
2023-04-25T15:00:00.545Z,10.90
2023-04-25T15:02:28.050Z,11.00
2023-04-25T15:04:56.966Z,11.00
2023-04-25T15:07:24.009Z,10.90
2023-04-25T15:09:50.767Z,10.80
2023-04-25T15:12:17.487Z,10.80
2023-04-25T15:14:44.272Z,10.70
2023-04-25T15:17:10.980Z,10.50
2023-04-25T15:19:37.718Z,10.40
2023-04-25T15:22:04.540Z,10.20
2023-04-25T15:24:31.581Z,10.10
2023-04-25T15:26:59.268Z,10.10
2023-04-25T15:29:27.126Z,10.10
2023-04-25T15:31:54.114Z,10.10
2023-04-25T15:34:21.360Z,10.20
2023-04-25T15:36:48.132Z,10.30
2023-04-25T15:39:14.843Z,10.30
2023-04-25T15:41:42.040Z,10.30
2023-04-25T15:44:10.865Z,10.40
2023-04-25T15:46:37.811Z,10.40
2023-04-25T15:49:04.816Z,10.50
2023-04-25T15:51:31.889Z,10.50
2023-04-25T15:53:58.661Z,10.60
2023-04-25T15:56:25.394Z,10.50
2023-04-25T15:58:52.537Z,10.40
2023-04-25T16:01:19.618Z,10.20
2023-04-25T16:03:46.518Z,10.00
2023-04-25T16:06:13.339Z,9.90
2023-04-25T16:08:40.095Z,9.80
2023-04-25T16:11:06.836Z,9.80
2023-04-25T16:13:35.228Z,9.80
2023-04-25T16:16:02.312Z,9.80
2023-04-25T16:18:29.183Z,9.70
2023-04-25T16:20:56.043Z,9.70
2023-04-25T16:23:22.833Z,9.70
2023-04-25T16:25:50.727Z,9.60
2023-04-25T16:28:17.701Z,9.60
2023-04-25T16:30:44.516Z,9.50
2023-04-25T16:33:11.693Z,9.50
2023-04-25T16:35:38.672Z,9.50
2023-04-25T16:38:05.404Z,9.50
2023-04-25T16:40:32.115Z,9.40
2023-04-25T16:42:58.889Z,9.40
2023-04-25T16:45:26.714Z,9.40
2023-04-25T16:47:53.546Z,9.30
2023-04-25T16:50:20.621Z,9.30
2023-04-25T16:52:47.402Z,9.20
2023-04-25T16:55:14.173Z,9.20
2023-04-25T16:57:41.244Z,9.20
2023-04-25T17:00:13.563Z,9.20
2023-04-25T17:02:40.486Z,9.20
2023-04-25T17:05:07.701Z,9.10
2023-04-25T17:07:34.459Z,9.00
2023-04-25T17:10:01.300Z,8.90
2023-04-25T17:12:28.211Z,8.90
2023-04-25T17:14:54.940Z,8.80
2023-04-25T17:17:21.677Z,8.80
2023-04-25T17:19:48.468Z,8.70
2023-04-25T17:22:15.705Z,8.70
2023-04-25T17:24:42.595Z,8.70
2023-04-25T17:27:09.374Z,8.60
2023-04-25T17:29:36.123Z,8.60
2023-04-25T17:32:03.166Z,8.60
2023-04-25T17:34:31.792Z,8.50
2023-04-25T17:36:58.715Z,8.50
2023-04-25T17:39:25.471Z,8.50
2023-04-25T17:41:52.670Z,8.50
2023-04-25T17:44:19.481Z,8.50
2023-04-25T17:46:46.289Z,8.50
2023-04-25T17:49:13.039Z,8.40
2023-04-25T17:51:39.825Z,8.40
2023-04-25T17:54:06.722Z,8.40
2023-04-25T17:56:37.231Z,8.40
2023-04-25T17:59:04.686Z,8.30
2023-04-25T18:01:31.843Z,8.30
2023-04-25T18:03:58.798Z,8.20
2023-04-25T18:06:28.207Z,8.20
2023-04-25T18:08:56.039Z,8.20
2023-04-25T18:11:23.337Z,8.20
2023-04-25T18:13:50.138Z,8.20
2023-04-25T18:16:17.115Z,8.20
2023-04-25T18:18:46.754Z,8.10
2023-04-25T18:21:13.583Z,8.10
2023-04-25T18:23:40.712Z,8.10
2023-04-25T18:26:08.113Z,8.10
2023-04-25T18:28:35.188Z,8.10
2023-04-25T18:31:02.157Z,7.90
2023-04-25T18:33:28.890Z,7.90
2023-04-25T18:35:59.386Z,7.80
2023-04-25T18:41:08.378Z,7.60
2023-04-25T18:43:44.489Z,7.50
2023-04-25T18:46:11.459Z,7.40
2023-04-25T18:48:38.172Z,7.30
2023-04-25T18:51:05.651Z,7.20
2023-04-25T18:53:32.630Z,7.10
2023-04-25T18:55:59.434Z,7.00
2023-04-25T18:58:26.379Z,7.00
2023-04-25T19:00:53.490Z,6.90
2023-04-25T19:03:21.117Z,6.90
2023-04-25T19:05:48.019Z,6.90
2023-04-25T19:08:14.759Z,6.90
2023-04-25T19:10:41.464Z,6.90
2023-04-25T19:13:08.550Z,6.80
2023-04-25T19:15:35.753Z,6.80
2023-04-25T19:18:02.886Z,6.80
2023-04-25T19:20:29.671Z,6.80
2023-04-25T19:22:56.819Z,6.80
2023-04-25T19:25:24.893Z,6.80
2023-04-25T19:27:52.128Z,6.80
2023-04-25T19:30:19.348Z,6.90
2023-04-25T19:32:46.267Z,6.90
2023-04-25T19:35:13.442Z,6.90
2023-04-25T19:37:46.046Z,6.80
2023-04-25T19:40:14.947Z,6.80
2023-04-25T19:42:41.888Z,6.80
2023-04-25T19:45:09.054Z,6.80
2023-04-25T19:47:38.544Z,6.80
2023-04-25T19:50:09.972Z,6.80
2023-04-25T19:52:36.970Z,6.80
2023-04-25T19:55:04.773Z,6.80
2023-04-25T19:57:37.708Z,6.80
2023-04-25T20:00:08.886Z,6.80
2023-04-25T20:02:36.748Z,6.80
2023-04-25T20:05:08.047Z,6.80
2023-04-25T20:07:35.622Z,6.80
2023-04-25T20:10:02.531Z,6.80
2023-04-25T20:12:29.236Z,6.80
2023-04-25T20:14:56.663Z,6.80
2023-04-25T20:17:23.515Z,6.70
2023-04-25T20:19:50.394Z,6.70
2023-04-25T20:22:17.381Z,6.70
2023-04-25T20:24:44.168Z,6.70
2023-04-25T20:27:11.020Z,6.60
2023-04-25T20:29:37.782Z,6.60
2023-04-25T20:32:04.995Z,6.60
2023-04-25T20:34:31.986Z,6.60
2023-04-25T20:36:59.279Z,6.60
2023-04-25T20:39:26.164Z,6.60
2023-04-25T20:41:52.926Z,6.60
2023-04-25T20:44:22.543Z,6.60
2023-04-25T20:46:49.709Z,6.60
2023-04-25T20:49:16.433Z,6.60
2023-04-25T20:51:43.176Z,6.50
2023-04-25T20:54:11.051Z,6.50
2023-04-25T20:56:37.963Z,6.50
2023-04-25T20:59:04.748Z,6.60
2023-04-25T21:01:31.619Z,6.60
2023-04-25T21:03:59.179Z,6.60
2023-04-25T21:06:27.582Z,6.60
2023-04-25T21:08:54.563Z,6.60
2023-04-25T21:11:23.325Z,6.60
2023-04-25T21:13:50.635Z,6.60
2023-04-25T21:16:17.496Z,6.60
2023-04-25T21:18:44.238Z,6.60
2023-04-25T21:21:11.148Z,6.70
2023-04-25T21:23:37.882Z,6.60
2023-04-25T21:26:04.649Z,6.60
2023-04-25T21:28:32.107Z,6.60
2023-04-25T21:30:59.272Z,6.50
2023-04-25T21:33:26.098Z,6.50
2023-04-25T21:35:52.825Z,6.50
2023-04-25T21:38:19.595Z,6.40
2023-04-25T21:40:46.345Z,6.40
2023-04-25T21:43:13.089Z,6.40
2023-04-25T21:45:53.765Z,6.50
2023-04-25T21:48:26.700Z,6.50
2023-04-25T21:50:53.749Z,6.50
2023-04-25T21:53:20.480Z,6.50
2023-04-25T21:55:47.165Z,6.50
2023-04-25T21:58:14.090Z,6.50
2023-04-25T22:00:42.338Z,6.50
2023-04-25T22:03:09.345Z,6.50
2023-04-25T22:05:36.717Z,6.50
2023-04-25T22:08:03.708Z,6.40
2023-04-25T22:10:30.638Z,6.40
2023-04-25T22:12:58.353Z,6.30
2023-04-25T22:15:25.254Z,6.30
2023-04-25T22:17:55.270Z,6.30
2023-04-25T22:20:26.011Z,6.20
2023-04-25T22:22:54.484Z,6.30
2023-04-25T22:25:22.058Z,6.20
2023-04-25T22:27:49.129Z,6.30
2023-04-25T22:30:15.952Z,6.30
2023-04-25T22:32:43.473Z,6.40
2023-04-25T22:35:10.621Z,6.40
2023-04-25T22:37:37.755Z,6.40
2023-04-25T22:40:09.135Z,6.50
2023-04-25T22:42:40.211Z,6.50
2023-04-25T22:45:11.430Z,6.50
2023-04-25T22:47:39.136Z,6.50
2023-04-25T22:50:08.546Z,6.50
2023-04-25T22:52:35.367Z,6.50
2023-04-25T22:55:05.336Z,6.50
2023-04-25T22:57:32.104Z,6.50
2023-04-25T22:59:58.923Z,6.60
2023-04-25T23:02:25.883Z,6.60
2023-04-25T23:04:55.579Z,6.60
2023-04-25T23:07:22.400Z,6.60
2023-04-25T23:09:49.340Z,6.70
2023-04-25T23:12:19.292Z,6.60
2023-04-25T23:14:51.012Z,6.70
2023-04-25T23:17:17.710Z,6.70
2023-04-25T23:19:45.220Z,6.70
2023-04-25T23:22:12.493Z,6.70
2023-04-25T23:24:39.236Z,6.70
2023-04-25T23:27:06.006Z,6.70
2023-04-25T23:29:34.123Z,6.70
2023-04-25T23:32:04.314Z,6.70
2023-04-25T23:34:31.981Z,6.70
2023-04-25T23:37:01.289Z,6.70
2023-04-25T23:39:28.620Z,6.70
2023-04-25T23:41:55.789Z,6.70
2023-04-25T23:44:22.688Z,6.70
2023-04-25T23:46:49.969Z,6.60
2023-04-25T23:49:16.794Z,6.70
2023-04-25T23:51:43.506Z,6.60
2023-04-25T23:54:10.322Z,6.70
2023-04-25T23:56:37.085Z,6.70
2023-04-25T23:59:03.968Z,6.60
